sensor_id;sensor_type;location;lat;lon;timestamp;temperature;humidity
64888;DHT22;51386;53.082;8.816;2023-02-12T00:00:08;10.80;90.90
64888;DHT22;51386;53.082;8.816;2023-02-12T00:02:37;10.80;90.80
64888;DHT22;51386;53.082;8.816;2023-02-12T00:05:05;10.80;90.90
64888;DHT22;51386;53.082;8.816;2023-02-12T00:07:33;10.80;90.90
64888;DHT22;51386;53.082;8.816;2023-02-12T00:10:00;10.80;90.90
64888;DHT22;51386;53.082;8.816;2023-02-12T00:12:27;10.80;90.90
64888;DHT22;51386;53.082;8.816;2023-02-12T00:14:54;10.80;90.90
64888;DHT22;51386;53.082;8.816;2023-02-12T00:17:21;10.80;90.90
64888;DHT22;51386;53.082;8.816;2023-02-12T00:19:48;10.80;91.00
64888;DHT22;51386;53.082;8.816;2023-02-12T00:22:15;10.80;91.00
64888;DHT22;51386;53.082;8.816;2023-02-12T00:24:43;10.80;91.00
64888;DHT22;51386;53.082;8.816;2023-02-12T00:27:10;10.80;91.00
64888;DHT22;51386;53.082;8.816;2023-02-12T00:29:37;10.80;90.90
64888;DHT22;51386;53.082;8.816;2023-02-12T00:32:04;10.80;90.90
64888;DHT22;51386;53.082;8.816;2023-02-12T00:34:31;10.80;91.20
64888;DHT22;51386;53.082;8.816;2023-02-12T00:36:58;10.80;90.90
64888;DHT22;51386;53.082;8.816;2023-02-12T00:39:25;10.80;90.90
64888;DHT22;51386;53.082;8.816;2023-02-12T00:41:53;10.80;90.80
64888;DHT22;51386;53.082;8.816;2023-02-12T00:44:20;10.80;90.80
64888;DHT22;51386;53.082;8.816;2023-02-12T00:46:47;10.80;90.70
64888;DHT22;51386;53.082;8.816;2023-02-12T00:49:14;10.80;90.80
64888;DHT22;51386;53.082;8.816;2023-02-12T00:51:41;10.80;90.80
64888;DHT22;51386;53.082;8.816;2023-02-12T00:54:08;10.80;90.80
64888;DHT22;51386;53.082;8.816;2023-02-12T00:56:35;10.70;90.80
64888;DHT22;51386;53.082;8.816;2023-02-12T00:59:03;10.70;90.80
64888;DHT22;51386;53.082;8.816;2023-02-12T01:01:30;10.70;90.80
64888;DHT22;51386;53.082;8.816;2023-02-12T01:03:57;10.70;90.80
64888;DHT22;51386;53.082;8.816;2023-02-12T01:06:24;10.70;90.80
64888;DHT22;51386;53.082;8.816;2023-02-12T01:08:51;10.70;90.90
64888;DHT22;51386;53.082;8.816;2023-02-12T01:11:19;10.60;90.80
64888;DHT22;51386;53.082;8.816;2023-02-12T01:13:46;10.70;90.80
64888;DHT22;51386;53.082;8.816;2023-02-12T01:16:17;10.60;90.80
64888;DHT22;51386;53.082;8.816;2023-02-12T01:18:46;10.60;90.80
64888;DHT22;51386;53.082;8.816;2023-02-12T01:21:16;10.60;90.90
64888;DHT22;51386;53.082;8.816;2023-02-12T01:23:46;10.60;90.90
64888;DHT22;51386;53.082;8.816;2023-02-12T01:26:14;10.60;90.90
64888;DHT22;51386;53.082;8.816;2023-02-12T01:28:43;10.60;90.90
64888;DHT22;51386;53.082;8.816;2023-02-12T01:31:18;10.60;91.00
64888;DHT22;51386;53.082;8.816;2023-02-12T01:33:47;10.60;91.00
64888;DHT22;51386;53.082;8.816;2023-02-12T01:36:15;10.60;90.90
64888;DHT22;51386;53.082;8.816;2023-02-12T01:38:42;10.60;90.90
64888;DHT22;51386;53.082;8.816;2023-02-12T01:41:11;10.60;90.90
64888;DHT22;51386;53.082;8.816;2023-02-12T01:43:41;10.60;90.90
64888;DHT22;51386;53.082;8.816;2023-02-12T01:46:12;10.60;90.90
64888;DHT22;51386;53.082;8.816;2023-02-12T01:48:44;10.60;91.00
64888;DHT22;51386;53.082;8.816;2023-02-12T01:51:16;10.60;90.90
64888;DHT22;51386;53.082;8.816;2023-02-12T01:53:48;10.60;90.80
64888;DHT22;51386;53.082;8.816;2023-02-12T01:56:17;10.60;90.80
64888;DHT22;51386;53.082;8.816;2023-02-12T01:58:46;10.60;90.80
64888;DHT22;51386;53.082;8.816;2023-02-12T02:01:18;10.60;90.80
64888;DHT22;51386;53.082;8.816;2023-02-12T02:03:51;10.60;90.80
64888;DHT22;51386;53.082;8.816;2023-02-12T02:06:25;10.60;90.80
64888;DHT22;51386;53.082;8.816;2023-02-12T02:08:56;10.60;90.80
64888;DHT22;51386;53.082;8.816;2023-02-12T02:11:23;10.50;90.70
64888;DHT22;51386;53.082;8.816;2023-02-12T02:14:09;10.50;90.70
64888;DHT22;51386;53.082;8.816;2023-02-12T02:20:05;10.50;90.60
64888;DHT22;51386;53.082;8.816;2023-02-12T02:22:50;10.50;90.60
64888;DHT22;51386;53.082;8.816;2023-02-12T02:25:40;10.50;90.70
64888;DHT22;51386;53.082;8.816;2023-02-12T02:28:38;10.50;90.70
64888;DHT22;51386;53.082;8.816;2023-02-12T02:31:26;10.40;90.70
64888;DHT22;51386;53.082;8.816;2023-02-12T02:34:06;10.40;90.60
64888;DHT22;51386;53.082;8.816;2023-02-12T02:36:43;10.40;90.60
64888;DHT22;51386;53.082;8.816;2023-02-12T02:39:31;10.40;90.70
64888;DHT22;51386;53.082;8.816;2023-02-12T02:42:08;10.30;90.60
64888;DHT22;51386;53.082;8.816;2023-02-12T02:44:44;10.30;90.60
64888;DHT22;51386;53.082;8.816;2023-02-12T02:47:20;10.30;90.70
64888;DHT22;51386;53.082;8.816;2023-02-12T02:49:53;10.30;90.70
64888;DHT22;51386;53.082;8.816;2023-02-12T02:52:27;10.30;90.70
64888;DHT22;51386;53.082;8.816;2023-02-12T02:55:02;10.30;90.80
64888;DHT22;51386;53.082;8.816;2023-02-12T02:57:36;10.20;90.70
64888;DHT22;51386;53.082;8.816;2023-02-12T03:00:12;10.20;90.80
64888;DHT22;51386;53.082;8.816;2023-02-12T03:02:49;10.20;90.80
64888;DHT22;51386;53.082;8.816;2023-02-12T03:05:23;10.20;90.90
64888;DHT22;51386;53.082;8.816;2023-02-12T03:07:58;10.20;90.90
64888;DHT22;51386;53.082;8.816;2023-02-12T03:10:30;10.20;90.90
64888;DHT22;51386;53.082;8.816;2023-02-12T03:13:07;10.20;90.90
64888;DHT22;51386;53.082;8.816;2023-02-12T03:15:40;10.20;90.90
64888;DHT22;51386;53.082;8.816;2023-02-12T03:18:18;10.20;90.90
64888;DHT22;51386;53.082;8.816;2023-02-12T03:20:51;10.20;90.80
64888;DHT22;51386;53.082;8.816;2023-02-12T03:23:26;10.20;90.80
64888;DHT22;51386;53.082;8.816;2023-02-12T03:26:02;10.20;90.80
64888;DHT22;51386;53.082;8.816;2023-02-12T03:28:34;10.20;90.80
64888;DHT22;51386;53.082;8.816;2023-02-12T03:31:09;10.20;90.80
64888;DHT22;51386;53.082;8.816;2023-02-12T03:33:52;10.20;90.80
64888;DHT22;51386;53.082;8.816;2023-02-12T03:36:36;10.20;90.70
64888;DHT22;51386;53.082;8.816;2023-02-12T03:39:12;10.20;90.70
64888;DHT22;51386;53.082;8.816;2023-02-12T03:41:48;10.20;90.60
64888;DHT22;51386;53.082;8.816;2023-02-12T03:44:28;10.20;90.70
64888;DHT22;51386;53.082;8.816;2023-02-12T03:47:14;10.10;90.60
64888;DHT22;51386;53.082;8.816;2023-02-12T03:49:52;10.20;90.70
64888;DHT22;51386;53.082;8.816;2023-02-12T03:52:25;10.10;90.70
64888;DHT22;51386;53.082;8.816;2023-02-12T03:54:52;10.10;90.60
64888;DHT22;51386;53.082;8.816;2023-02-12T03:57:21;10.10;90.60
64888;DHT22;51386;53.082;8.816;2023-02-12T03:59:57;10.10;90.60
64888;DHT22;51386;53.082;8.816;2023-02-12T04:02:24;10.20;90.70
64888;DHT22;51386;53.082;8.816;2023-02-12T04:04:53;10.10;90.70
64888;DHT22;51386;53.082;8.816;2023-02-12T04:07:20;10.10;90.70
64888;DHT22;51386;53.082;8.816;2023-02-12T04:09:47;10.20;90.70
64888;DHT22;51386;53.082;8.816;2023-02-12T04:12:25;10.20;90.60
64888;DHT22;51386;53.082;8.816;2023-02-12T04:15:10;10.20;90.60
64888;DHT22;51386;53.082;8.816;2023-02-12T04:17:50;10.20;90.60
64888;DHT22;51386;53.082;8.816;2023-02-12T04:20:27;10.20;90.60
64888;DHT22;51386;53.082;8.816;2023-02-12T04:23:10;10.10;90.60
64888;DHT22;51386;53.082;8.816;2023-02-12T04:25:52;10.20;90.60
64888;DHT22;51386;53.082;8.816;2023-02-12T04:28:35;10.20;90.60
64888;DHT22;51386;53.082;8.816;2023-02-12T04:31:14;10.20;90.60
64888;DHT22;51386;53.082;8.816;2023-02-12T04:33:57;10.20;90.60
64888;DHT22;51386;53.082;8.816;2023-02-12T04:36:37;10.20;90.60
64888;DHT22;51386;53.082;8.816;2023-02-12T04:39:17;10.20;90.60
64888;DHT22;51386;53.082;8.816;2023-02-12T04:41:47;10.20;90.60
64888;DHT22;51386;53.082;8.816;2023-02-12T04:44:17;10.20;90.60
64888;DHT22;51386;53.082;8.816;2023-02-12T04:46:48;10.20;90.70
64888;DHT22;51386;53.082;8.816;2023-02-12T04:49:16;10.20;90.70
64888;DHT22;51386;53.082;8.816;2023-02-12T04:51:47;10.20;90.80
64888;DHT22;51386;53.082;8.816;2023-02-12T04:54:16;10.20;90.70
64888;DHT22;51386;53.082;8.816;2023-02-12T04:56:44;10.20;90.70
64888;DHT22;51386;53.082;8.816;2023-02-12T04:59:12;10.20;90.70
64888;DHT22;51386;53.082;8.816;2023-02-12T05:01:41;10.20;90.70
64888;DHT22;51386;53.082;8.816;2023-02-12T05:04:11;10.20;90.70
64888;DHT22;51386;53.082;8.816;2023-02-12T05:06:40;10.30;90.80
64888;DHT22;51386;53.082;8.816;2023-02-12T05:09:13;10.30;90.80
64888;DHT22;51386;53.082;8.816;2023-02-12T05:11:42;10.30;90.70
64888;DHT22;51386;53.082;8.816;2023-02-12T05:14:09;10.30;90.70
64888;DHT22;51386;53.082;8.816;2023-02-12T05:16:37;10.30;90.70
64888;DHT22;51386;53.082;8.816;2023-02-12T05:19:04;10.30;90.60
64888;DHT22;51386;53.082;8.816;2023-02-12T05:21:31;10.30;90.60
64888;DHT22;51386;53.082;8.816;2023-02-12T05:24:00;10.30;90.60
64888;DHT22;51386;53.082;8.816;2023-02-12T05:26:28;10.30;90.70
64888;DHT22;51386;53.082;8.816;2023-02-12T05:28:55;10.30;90.70
64888;DHT22;51386;53.082;8.816;2023-02-12T05:31:22;10.30;90.80
64888;DHT22;51386;53.082;8.816;2023-02-12T05:33:49;10.30;90.80
64888;DHT22;51386;53.082;8.816;2023-02-12T05:36:17;10.30;90.70
64888;DHT22;51386;53.082;8.816;2023-02-12T05:38:47;10.30;90.70
64888;DHT22;51386;53.082;8.816;2023-02-12T05:41:18;10.30;90.70
64888;DHT22;51386;53.082;8.816;2023-02-12T05:43:49;10.30;90.60
64888;DHT22;51386;53.082;8.816;2023-02-12T05:46:17;10.30;90.60
64888;DHT22;51386;53.082;8.816;2023-02-12T05:48:46;10.30;90.60
64888;DHT22;51386;53.082;8.816;2023-02-12T05:51:15;10.30;90.60
64888;DHT22;51386;53.082;8.816;2023-02-12T05:53:43;10.30;90.60
64888;DHT22;51386;53.082;8.816;2023-02-12T05:56:12;10.20;90.60
64888;DHT22;51386;53.082;8.816;2023-02-12T05:58:42;10.20;90.70
64888;DHT22;51386;53.082;8.816;2023-02-12T06:01:14;10.20;90.70
64888;DHT22;51386;53.082;8.816;2023-02-12T06:03:43;10.20;90.80
64888;DHT22;51386;53.082;8.816;2023-02-12T06:06:11;10.20;90.70
64888;DHT22;51386;53.082;8.816;2023-02-12T06:08:38;10.20;90.80
64888;DHT22;51386;53.082;8.816;2023-02-12T06:11:07;10.20;90.80
64888;DHT22;51386;53.082;8.816;2023-02-12T06:13:36;10.20;90.90
64888;DHT22;51386;53.082;8.816;2023-02-12T06:16:04;10.20;90.90
64888;DHT22;51386;53.082;8.816;2023-02-12T06:18:35;10.20;90.90
64888;DHT22;51386;53.082;8.816;2023-02-12T06:21:02;10.20;90.90
64888;DHT22;51386;53.082;8.816;2023-02-12T06:23:29;10.20;90.90
64888;DHT22;51386;53.082;8.816;2023-02-12T06:25:57;10.20;90.80
64888;DHT22;51386;53.082;8.816;2023-02-12T06:28:24;10.20;90.80
64888;DHT22;51386;53.082;8.816;2023-02-12T06:30:51;10.20;90.80
64888;DHT22;51386;53.082;8.816;2023-02-12T06:33:18;10.20;90.90
64888;DHT22;51386;53.082;8.816;2023-02-12T06:35:47;10.20;90.90
64888;DHT22;51386;53.082;8.816;2023-02-12T06:38:13;10.20;90.90
64888;DHT22;51386;53.082;8.816;2023-02-12T06:40:41;10.10;90.90
64888;DHT22;51386;53.082;8.816;2023-02-12T06:43:08;10.20;90.90
64888;DHT22;51386;53.082;8.816;2023-02-12T06:45:35;10.20;91.00
64888;DHT22;51386;53.082;8.816;2023-02-12T06:48:02;10.20;91.00
64888;DHT22;51386;53.082;8.816;2023-02-12T06:50:29;10.20;91.00
64888;DHT22;51386;53.082;8.816;2023-02-12T06:52:58;10.20;90.90
64888;DHT22;51386;53.082;8.816;2023-02-12T06:55:25;10.20;90.90
64888;DHT22;51386;53.082;8.816;2023-02-12T06:57:52;10.20;90.90
64888;DHT22;51386;53.082;8.816;2023-02-12T07:00:20;10.10;90.90
64888;DHT22;51386;53.082;8.816;2023-02-12T07:02:51;10.10;91.00
64888;DHT22;51386;53.082;8.816;2023-02-12T07:05:20;10.10;91.10
64888;DHT22;51386;53.082;8.816;2023-02-12T07:07:48;10.10;91.20
64888;DHT22;51386;53.082;8.816;2023-02-12T07:10:17;10.10;91.20
64888;DHT22;51386;53.082;8.816;2023-02-12T07:12:45;10.10;91.30
64888;DHT22;51386;53.082;8.816;2023-02-12T07:15:12;10.20;91.30
64888;DHT22;51386;53.082;8.816;2023-02-12T07:17:40;10.20;91.30
64888;DHT22;51386;53.082;8.816;2023-02-12T07:20:08;10.20;91.30
64888;DHT22;51386;53.082;8.816;2023-02-12T07:22:35;10.20;91.30
64888;DHT22;51386;53.082;8.816;2023-02-12T07:25:03;10.30;91.30
64888;DHT22;51386;53.082;8.816;2023-02-12T07:27:35;10.30;91.20
64888;DHT22;51386;53.082;8.816;2023-02-12T07:30:03;10.20;91.20
64888;DHT22;51386;53.082;8.816;2023-02-12T07:32:31;10.20;91.10
64888;DHT22;51386;53.082;8.816;2023-02-12T07:34:58;10.30;91.10
64888;DHT22;51386;53.082;8.816;2023-02-12T07:37:25;10.30;91.10
64888;DHT22;51386;53.082;8.816;2023-02-12T07:39:52;10.20;91.10
64888;DHT22;51386;53.082;8.816;2023-02-12T07:42:19;10.20;91.10
64888;DHT22;51386;53.082;8.816;2023-02-12T07:44:48;10.20;91.10
64888;DHT22;51386;53.082;8.816;2023-02-12T07:47:16;10.20;91.00
64888;DHT22;51386;53.082;8.816;2023-02-12T07:49:43;10.20;91.10
64888;DHT22;51386;53.082;8.816;2023-02-12T07:52:10;10.20;91.10
64888;DHT22;51386;53.082;8.816;2023-02-12T07:54:39;10.30;91.20
64888;DHT22;51386;53.082;8.816;2023-02-12T07:57:06;10.30;91.20
64888;DHT22;51386;53.082;8.816;2023-02-12T07:59:34;10.30;91.20
64888;DHT22;51386;53.082;8.816;2023-02-12T08:02:02;10.30;91.10
64888;DHT22;51386;53.082;8.816;2023-02-12T08:04:29;10.30;91.10
64888;DHT22;51386;53.082;8.816;2023-02-12T08:06:56;10.30;91.10
64888;DHT22;51386;53.082;8.816;2023-02-12T08:09:26;10.30;91.00
64888;DHT22;51386;53.082;8.816;2023-02-12T08:11:56;10.30;91.10
64888;DHT22;51386;53.082;8.816;2023-02-12T08:14:23;10.30;91.10
64888;DHT22;51386;53.082;8.816;2023-02-12T08:16:52;10.30;91.10
64888;DHT22;51386;53.082;8.816;2023-02-12T08:19:20;10.30;91.10
64888;DHT22;51386;53.082;8.816;2023-02-12T08:21:53;10.40;91.20
64888;DHT22;51386;53.082;8.816;2023-02-12T08:24:21;10.40;91.20
64888;DHT22;51386;53.082;8.816;2023-02-12T08:26:49;10.40;91.20
64888;DHT22;51386;53.082;8.816;2023-02-12T08:29:18;10.40;91.10
64888;DHT22;51386;53.082;8.816;2023-02-12T08:31:49;10.50;91.10
64888;DHT22;51386;53.082;8.816;2023-02-12T08:34:23;10.50;91.00
64888;DHT22;51386;53.082;8.816;2023-02-12T08:36:52;10.50;91.00
64888;DHT22;51386;53.082;8.816;2023-02-12T08:39:21;10.50;91.00
64888;DHT22;51386;53.082;8.816;2023-02-12T08:41:50;10.50;91.00
64888;DHT22;51386;53.082;8.816;2023-02-12T08:44:19;10.50;90.90
64888;DHT22;51386;53.082;8.816;2023-02-12T08:46:47;10.60;91.30
64888;DHT22;51386;53.082;8.816;2023-02-12T08:49:18;10.60;90.80
64888;DHT22;51386;53.082;8.816;2023-02-12T08:51:49;10.60;90.80
64888;DHT22;51386;53.082;8.816;2023-02-12T08:54:19;10.60;90.80
64888;DHT22;51386;53.082;8.816;2023-02-12T08:56:48;10.60;90.80
64888;DHT22;51386;53.082;8.816;2023-02-12T08:59:16;10.60;90.70
64888;DHT22;51386;53.082;8.816;2023-02-12T09:01:44;10.60;90.80
64888;DHT22;51386;53.082;8.816;2023-02-12T09:04:14;10.60;90.70
64888;DHT22;51386;53.082;8.816;2023-02-12T09:06:44;10.70;90.70
64888;DHT22;51386;53.082;8.816;2023-02-12T09:09:13;10.70;90.60
64888;DHT22;51386;53.082;8.816;2023-02-12T09:11:41;10.70;90.60
64888;DHT22;51386;53.082;8.816;2023-02-12T09:14:11;10.70;90.60
64888;DHT22;51386;53.082;8.816;2023-02-12T09:16:39;10.70;90.60
64888;DHT22;51386;53.082;8.816;2023-02-12T09:19:09;10.70;90.60
64888;DHT22;51386;53.082;8.816;2023-02-12T09:21:37;10.70;90.60
64888;DHT22;51386;53.082;8.816;2023-02-12T09:24:05;10.70;90.50
64888;DHT22;51386;53.082;8.816;2023-02-12T09:26:33;10.80;90.50
64888;DHT22;51386;53.082;8.816;2023-02-12T09:29:01;10.80;90.50
64888;DHT22;51386;53.082;8.816;2023-02-12T09:31:30;10.80;90.60
64888;DHT22;51386;53.082;8.816;2023-02-12T09:34:01;10.80;90.50
64888;DHT22;51386;53.082;8.816;2023-02-12T09:36:29;10.80;90.50
64888;DHT22;51386;53.082;8.816;2023-02-12T09:38:58;10.80;90.50
64888;DHT22;51386;53.082;8.816;2023-02-12T09:41:41;10.90;90.50
64888;DHT22;51386;53.082;8.816;2023-02-12T09:44:20;10.90;90.50
64888;DHT22;51386;53.082;8.816;2023-02-12T09:46:56;10.90;90.50
64888;DHT22;51386;53.082;8.816;2023-02-12T09:49:40;11.00;90.50
64888;DHT22;51386;53.082;8.816;2023-02-12T09:52:18;11.00;90.40
64888;DHT22;51386;53.082;8.816;2023-02-12T09:54:49;11.00;90.40
64888;DHT22;51386;53.082;8.816;2023-02-12T09:57:22;11.10;90.40
64888;DHT22;51386;53.082;8.816;2023-02-12T09:59:58;11.10;90.30
64888;DHT22;51386;53.082;8.816;2023-02-12T10:02:28;11.20;90.40
64888;DHT22;51386;53.082;8.816;2023-02-12T10:04:55;11.20;90.80
64888;DHT22;51386;53.082;8.816;2023-02-12T10:07:39;11.20;90.40
64888;DHT22;51386;53.082;8.816;2023-02-12T10:10:34;11.30;90.20
64888;DHT22;51386;53.082;8.816;2023-02-12T10:13:21;11.30;90.10
64888;DHT22;51386;53.082;8.816;2023-02-12T10:16:01;11.30;90.10
64888;DHT22;51386;53.082;8.816;2023-02-12T10:18:48;11.30;90.20
64888;DHT22;51386;53.082;8.816;2023-02-12T10:21:35;11.40;90.30
64888;DHT22;51386;53.082;8.816;2023-02-12T10:24:43;11.40;90.10
64888;DHT22;51386;53.082;8.816;2023-02-12T10:27:30;11.50;90.00
64888;DHT22;51386;53.082;8.816;2023-02-12T10:30:14;11.50;89.80
64888;DHT22;51386;53.082;8.816;2023-02-12T10:32:48;11.50;89.70
64888;DHT22;51386;53.082;8.816;2023-02-12T10:35:20;11.50;89.60
64888;DHT22;51386;53.082;8.816;2023-02-12T10:37:54;11.50;89.60
64888;DHT22;51386;53.082;8.816;2023-02-12T10:40:26;11.50;89.60
64888;DHT22;51386;53.082;8.816;2023-02-12T10:42:59;11.60;89.80
64888;DHT22;51386;53.082;8.816;2023-02-12T10:45:32;11.60;90.00
64888;DHT22;51386;53.082;8.816;2023-02-12T10:48:08;11.60;90.00
64888;DHT22;51386;53.082;8.816;2023-02-12T10:50:50;11.70;89.80
64888;DHT22;51386;53.082;8.816;2023-02-12T10:53:31;11.70;89.50
64888;DHT22;51386;53.082;8.816;2023-02-12T10:56:14;11.70;89.20
64888;DHT22;51386;53.082;8.816;2023-02-12T10:58:52;11.70;89.30
64888;DHT22;51386;53.082;8.816;2023-02-12T11:01:24;11.70;89.30
64888;DHT22;51386;53.082;8.816;2023-02-12T11:03:53;11.70;89.40
64888;DHT22;51386;53.082;8.816;2023-02-12T11:06:26;11.70;89.70
64888;DHT22;51386;53.082;8.816;2023-02-12T11:08:57;11.70;89.90
64888;DHT22;51386;53.082;8.816;2023-02-12T11:11:26;11.70;90.00
64888;DHT22;51386;53.082;8.816;2023-02-12T11:13:57;11.80;90.10
64888;DHT22;51386;53.082;8.816;2023-02-12T11:16:32;11.80;90.00
64888;DHT22;51386;53.082;8.816;2023-02-12T11:19:03;11.80;90.00
64888;DHT22;51386;53.082;8.816;2023-02-12T11:21:32;11.90;90.00
64888;DHT22;51386;53.082;8.816;2023-02-12T11:24:20;11.90;89.90
64888;DHT22;51386;53.082;8.816;2023-02-12T11:27:11;11.90;89.80
64888;DHT22;51386;53.082;8.816;2023-02-12T11:29:39;11.90;89.40
64888;DHT22;51386;53.082;8.816;2023-02-12T11:32:14;11.90;89.30
64888;DHT22;51386;53.082;8.816;2023-02-12T11:34:42;11.90;89.50
64888;DHT22;51386;53.082;8.816;2023-02-12T11:37:14;11.90;89.60
64888;DHT22;51386;53.082;8.816;2023-02-12T11:39:46;11.90;89.70
64888;DHT22;51386;53.082;8.816;2023-02-12T11:42:17;11.90;89.70
64888;DHT22;51386;53.082;8.816;2023-02-12T11:44:50;11.90;89.40
64888;DHT22;51386;53.082;8.816;2023-02-12T11:47:23;11.90;89.40
64888;DHT22;51386;53.082;8.816;2023-02-12T11:49:55;11.90;89.60
64888;DHT22;51386;53.082;8.816;2023-02-12T11:52:27;11.90;89.60
64888;DHT22;51386;53.082;8.816;2023-02-12T11:55:00;12.00;89.40
64888;DHT22;51386;53.082;8.816;2023-02-12T11:57:37;12.00;89.40
64888;DHT22;51386;53.082;8.816;2023-02-12T12:00:13;12.00;89.50
64888;DHT22;51386;53.082;8.816;2023-02-12T12:02:48;12.10;89.60
64888;DHT22;51386;53.082;8.816;2023-02-12T12:05:21;12.10;89.50
64888;DHT22;51386;53.082;8.816;2023-02-12T12:07:57;12.20;89.60
64888;DHT22;51386;53.082;8.816;2023-02-12T12:10:34;12.20;89.60
64888;DHT22;51386;53.082;8.816;2023-02-12T12:13:12;12.20;90.00
64888;DHT22;51386;53.082;8.816;2023-02-12T12:15:45;12.20;89.50
64888;DHT22;51386;53.082;8.816;2023-02-12T12:18:42;12.30;89.40
64888;DHT22;51386;53.082;8.816;2023-02-12T12:21:36;12.30;89.20
64888;DHT22;51386;53.082;8.816;2023-02-12T12:24:12;12.40;89.00
64888;DHT22;51386;53.082;8.816;2023-02-12T12:26:48;12.40;88.80
64888;DHT22;51386;53.082;8.816;2023-02-12T12:29:32;12.50;88.70
64888;DHT22;51386;53.082;8.816;2023-02-12T12:32:15;12.50;88.50
64888;DHT22;51386;53.082;8.816;2023-02-12T12:34:47;12.40;88.00
64888;DHT22;51386;53.082;8.816;2023-02-12T12:37:31;12.50;88.00
64888;DHT22;51386;53.082;8.816;2023-02-12T12:40:23;12.40;87.90
64888;DHT22;51386;53.082;8.816;2023-02-12T12:43:10;12.40;87.90
64888;DHT22;51386;53.082;8.816;2023-02-12T12:52:40;12.30;88.20
64888;DHT22;51386;53.082;8.816;2023-02-12T12:55:59;12.30;88.20
64888;DHT22;51386;53.082;8.816;2023-02-12T12:58:45;12.40;88.00
64888;DHT22;51386;53.082;8.816;2023-02-12T13:01:41;12.40;87.70
64888;DHT22;51386;53.082;8.816;2023-02-12T13:04:41;12.30;87.20
64888;DHT22;51386;53.082;8.816;2023-02-12T13:07:37;12.30;87.10
64888;DHT22;51386;53.082;8.816;2023-02-12T13:10:27;12.20;87.30
64888;DHT22;51386;53.082;8.816;2023-02-12T13:13:12;12.20;87.50
64888;DHT22;51386;53.082;8.816;2023-02-12T13:15:55;12.20;87.70
64888;DHT22;51386;53.082;8.816;2023-02-12T13:18:39;12.10;87.70
64888;DHT22;51386;53.082;8.816;2023-02-12T13:21:25;12.10;87.80
64888;DHT22;51386;53.082;8.816;2023-02-12T13:24:05;12.10;87.90
64888;DHT22;51386;53.082;8.816;2023-02-12T13:26:44;12.10;87.90
64888;DHT22;51386;53.082;8.816;2023-02-12T13:29:18;12.10;87.90
64888;DHT22;51386;53.082;8.816;2023-02-12T13:31:52;12.20;88.00
64888;DHT22;51386;53.082;8.816;2023-02-12T13:34:25;12.20;87.80
64888;DHT22;51386;53.082;8.816;2023-02-12T13:36:56;12.20;87.50
64888;DHT22;51386;53.082;8.816;2023-02-12T13:39:30;12.20;87.40
64888;DHT22;51386;53.082;8.816;2023-02-12T13:42:12;12.20;87.40
64888;DHT22;51386;53.082;8.816;2023-02-12T13:44:56;12.20;87.60
64888;DHT22;51386;53.082;8.816;2023-02-12T13:47:33;12.10;87.30
64888;DHT22;51386;53.082;8.816;2023-02-12T13:50:22;12.10;87.40
64888;DHT22;51386;53.082;8.816;2023-02-12T13:53:06;12.10;87.70
64888;DHT22;51386;53.082;8.816;2023-02-12T13:55:58;12.10;87.90
64888;DHT22;51386;53.082;8.816;2023-02-12T13:58:55;12.10;88.10
64888;DHT22;51386;53.082;8.816;2023-02-12T14:01:40;12.10;88.20
64888;DHT22;51386;53.082;8.816;2023-02-12T14:04:25;12.10;88.10
64888;DHT22;51386;53.082;8.816;2023-02-12T14:07:01;12.10;88.10
64888;DHT22;51386;53.082;8.816;2023-02-12T14:09:35;12.10;88.00
64888;DHT22;51386;53.082;8.816;2023-02-12T14:12:07;12.00;87.80
64888;DHT22;51386;53.082;8.816;2023-02-12T14:14:40;12.00;87.90
64888;DHT22;51386;53.082;8.816;2023-02-12T14:17:41;11.90;87.70
64888;DHT22;51386;53.082;8.816;2023-02-12T14:20:24;11.90;87.90
64888;DHT22;51386;53.082;8.816;2023-02-12T14:22:59;11.90;88.00
64888;DHT22;51386;53.082;8.816;2023-02-12T14:26:01;11.90;88.20
64888;DHT22;51386;53.082;8.816;2023-02-12T14:28:42;11.90;87.90
64888;DHT22;51386;53.082;8.816;2023-02-12T14:31:31;11.90;88.10
64888;DHT22;51386;53.082;8.816;2023-02-12T14:34:39;12.00;88.10
64888;DHT22;51386;53.082;8.816;2023-02-12T14:37:14;12.00;88.00
64888;DHT22;51386;53.082;8.816;2023-02-12T14:39:43;12.00;87.80
64888;DHT22;51386;53.082;8.816;2023-02-12T14:42:42;12.10;87.70
64888;DHT22;51386;53.082;8.816;2023-02-12T14:45:35;12.00;87.80
64888;DHT22;51386;53.082;8.816;2023-02-12T14:48:03;12.10;87.60
64888;DHT22;51386;53.082;8.816;2023-02-12T14:50:37;12.10;87.40
64888;DHT22;51386;53.082;8.816;2023-02-12T14:53:25;12.10;87.40
64888;DHT22;51386;53.082;8.816;2023-02-12T14:55:56;12.00;87.30
64888;DHT22;51386;53.082;8.816;2023-02-12T14:58:25;12.00;87.20
64888;DHT22;51386;53.082;8.816;2023-02-12T15:00:55;12.00;87.10
64888;DHT22;51386;53.082;8.816;2023-02-12T15:03:31;12.00;87.20
64888;DHT22;51386;53.082;8.816;2023-02-12T15:06:10;12.00;87.30
64888;DHT22;51386;53.082;8.816;2023-02-12T15:08:49;12.00;87.40
64888;DHT22;51386;53.082;8.816;2023-02-12T15:11:37;12.00;87.50
64888;DHT22;51386;53.082;8.816;2023-02-12T15:14:15;12.00;87.60
64888;DHT22;51386;53.082;8.816;2023-02-12T15:16:53;12.00;87.70
64888;DHT22;51386;53.082;8.816;2023-02-12T15:19:33;11.90;87.60
64888;DHT22;51386;53.082;8.816;2023-02-12T15:22:18;11.90;87.60
64888;DHT22;51386;53.082;8.816;2023-02-12T15:24:48;11.90;87.30
64888;DHT22;51386;53.082;8.816;2023-02-12T15:27:16;11.90;87.40
64888;DHT22;51386;53.082;8.816;2023-02-12T15:29:48;11.90;87.50
64888;DHT22;51386;53.082;8.816;2023-02-12T15:32:23;11.90;87.50
64888;DHT22;51386;53.082;8.816;2023-02-12T15:34:53;11.90;87.30
64888;DHT22;51386;53.082;8.816;2023-02-12T15:37:24;11.90;87.30
64888;DHT22;51386;53.082;8.816;2023-02-12T15:39:56;11.90;87.20
64888;DHT22;51386;53.082;8.816;2023-02-12T15:42:28;11.90;87.00
64888;DHT22;51386;53.082;8.816;2023-02-12T15:45:06;11.90;87.00
64888;DHT22;51386;53.082;8.816;2023-02-12T15:47:44;11.80;87.00
64888;DHT22;51386;53.082;8.816;2023-02-12T15:50:20;11.80;86.90
64888;DHT22;51386;53.082;8.816;2023-02-12T15:52:49;11.80;86.90
64888;DHT22;51386;53.082;8.816;2023-02-12T15:55:19;11.80;87.00
64888;DHT22;51386;53.082;8.816;2023-02-12T15:57:48;11.80;87.80
64888;DHT22;51386;53.082;8.816;2023-02-12T16:00:27;11.80;86.90
64888;DHT22;51386;53.082;8.816;2023-02-12T16:02:58;11.80;86.90
64888;DHT22;51386;53.082;8.816;2023-02-12T16:05:26;11.70;86.90
64888;DHT22;51386;53.082;8.816;2023-02-12T16:07:53;11.70;87.10
64888;DHT22;51386;53.082;8.816;2023-02-12T16:10:22;11.70;87.30
64888;DHT22;51386;53.082;8.816;2023-02-12T16:12:50;11.70;87.40
64888;DHT22;51386;53.082;8.816;2023-02-12T16:15:26;11.70;87.50
64888;DHT22;51386;53.082;8.816;2023-02-12T16:17:56;11.70;87.60
64888;DHT22;51386;53.082;8.816;2023-02-12T16:20:30;11.70;87.70